Seabrook, New Hampshire
Current Conditions -  °F | °C
As of 3:20 PM on Tuesday 27 Jan 2015 (Local Time) from KPSM Reporting Station
Light Snow Light Snow  
Wind Chill: -2°   Ceiling: 400
Heat Index: 16°   Visibility: 0.62mi
Dew Point: 10°   Wind: 23mph
Humidity: 79%   Direction: 330°NNW
Pressure: 29.51"   Gusts: 35mph
Location:  42.89°N, 70.87°W
Report Text: KPSM 272020Z 33020G30KT 5/8SM R34/P6000FT -SN BLSN VV004 M09/M12 A2951 RMK AO2A
Loading
Personal Weather Stations






























Interactive Weather Map New forecast layout! Learn more

10-Day Weather Forecast

Advertisements
Track Severe Weather on mobile